createdAt,value
2022-12-18T00:00:09.015Z,12.27
2022-12-18T00:02:37.067Z,12.02
2022-12-18T00:05:05.370Z,13.25
2022-12-18T00:07:33.201Z,11.70
2022-12-18T00:10:01.484Z,12.20
2022-12-18T00:12:30.225Z,12.55
2022-12-18T00:14:58.093Z,14.50
2022-12-18T00:17:27.281Z,12.27
2022-12-18T00:19:55.402Z,12.83
2022-12-18T00:22:23.470Z,12.90
2022-12-18T00:24:52.809Z,14.27
2022-12-18T00:27:21.576Z,13.68
2022-12-18T00:29:51.008Z,13.55
2022-12-18T00:32:19.096Z,13.43
2022-12-18T00:34:48.350Z,14.98
2022-12-18T00:37:20.013Z,13.07
2022-12-18T00:39:50.508Z,13.63
2022-12-18T00:42:36.516Z,13.77
2022-12-18T00:45:10.695Z,14.37
2022-12-18T00:47:40.185Z,13.82
2022-12-18T00:50:11.809Z,14.15
2022-12-18T00:52:42.407Z,12.60
2022-12-18T00:55:11.691Z,14.13
2022-12-18T00:57:39.873Z,16.80
2022-12-18T01:00:10.811Z,14.20
2022-12-18T01:02:39.253Z,13.95
2022-12-18T01:05:10.223Z,12.75
2022-12-18T01:07:38.342Z,11.45
2022-12-18T01:10:07.625Z,11.73
2022-12-18T01:12:36.122Z,11.73
2022-12-18T01:15:04.641Z,12.07
2022-12-18T01:17:32.542Z,11.82
2022-12-18T01:20:00.665Z,11.13
2022-12-18T01:22:30.398Z,12.10
2022-12-18T01:24:58.249Z,10.77
2022-12-18T01:27:27.039Z,12.10
2022-12-18T01:29:55.220Z,10.27
2022-12-18T01:32:24.284Z,11.63
2022-12-18T01:34:52.620Z,10.97
2022-12-18T01:37:20.554Z,10.85
2022-12-18T01:39:51.019Z,11.30
2022-12-18T01:42:19.125Z,10.25
2022-12-18T01:45:23.528Z,11.00
2022-12-18T01:47:54.821Z,10.80
2022-12-18T01:50:27.490Z,9.68
2022-12-18T01:53:00.104Z,10.88
2022-12-18T01:55:33.600Z,10.77
2022-12-18T01:58:02.472Z,9.27
2022-12-18T02:00:30.792Z,10.83
2022-12-18T02:02:58.885Z,10.15
2022-12-18T02:05:36.800Z,9.55
2022-12-18T02:08:11.840Z,9.32
2022-12-18T02:10:50.499Z,9.88
2022-12-18T02:13:24.772Z,10.37
2022-12-18T02:15:59.548Z,11.23
2022-12-18T02:18:34.159Z,11.15
2022-12-18T02:21:12.922Z,10.05
2022-12-18T02:23:53.555Z,10.27
2022-12-18T02:26:26.810Z,10.03
2022-12-18T02:28:58.904Z,10.60
2022-12-18T02:31:30.519Z,10.68
2022-12-18T02:34:06.034Z,12.13
2022-12-18T02:36:35.873Z,9.13
2022-12-18T02:39:04.362Z,9.30
2022-12-18T02:41:34.122Z,9.25
2022-12-18T02:44:09.066Z,9.68
2022-12-18T02:46:40.089Z,9.10
2022-12-18T02:49:18.989Z,9.60
2022-12-18T02:51:53.644Z,9.17
2022-12-18T02:54:30.280Z,8.70
2022-12-18T02:57:05.859Z,9.75
2022-12-18T02:59:42.085Z,9.32
2022-12-18T03:02:23.422Z,9.50
2022-12-18T03:04:58.664Z,9.80
2022-12-18T03:07:36.577Z,9.32
2022-12-18T03:10:05.854Z,9.05
2022-12-18T03:12:39.917Z,9.60
2022-12-18T03:15:17.420Z,9.57
2022-12-18T03:17:51.607Z,9.37
2022-12-18T03:20:22.565Z,9.52
2022-12-18T03:22:59.833Z,8.82
2022-12-18T03:25:29.639Z,9.32
2022-12-18T03:28:02.785Z,9.50
2022-12-18T03:30:33.621Z,9.17
2022-12-18T03:33:09.679Z,9.23
2022-12-18T03:35:44.970Z,9.02
2022-12-18T03:38:13.631Z,9.23
2022-12-18T03:40:52.467Z,8.77
2022-12-18T03:43:33.270Z,8.80
2022-12-18T03:46:05.463Z,9.15
2022-12-18T03:48:38.796Z,8.95
2022-12-18T03:51:12.186Z,9.07
2022-12-18T03:53:45.624Z,9.45
2022-12-18T03:56:16.771Z,8.83
2022-12-18T03:58:47.956Z,9.93
2022-12-18T04:01:18.989Z,11.20
2022-12-18T04:03:50.712Z,9.35
2022-12-18T04:06:19.096Z,9.75
2022-12-18T04:08:48.105Z,11.03
2022-12-18T04:11:16.178Z,10.45
2022-12-18T04:13:45.811Z,14.25
2022-12-18T04:16:14.062Z,13.88
2022-12-18T04:18:42.404Z,11.02
2022-12-18T04:21:10.716Z,13.43
2022-12-18T04:23:39.539Z,12.93
2022-12-18T04:26:08.105Z,16.10
2022-12-18T04:28:36.059Z,11.02
2022-12-18T04:31:06.110Z,10.90
2022-12-18T04:33:33.994Z,10.70
2022-12-18T04:36:01.666Z,10.52
2022-12-18T04:38:29.710Z,10.13
2022-12-18T04:40:57.680Z,10.60
2022-12-18T04:43:25.703Z,10.13
2022-12-18T04:45:54.089Z,9.80
2022-12-18T04:48:24.450Z,9.80
2022-12-18T04:50:52.704Z,10.70
2022-12-18T04:53:21.756Z,11.55
2022-12-18T04:55:49.896Z,10.18
2022-12-18T04:58:18.100Z,9.03
2022-12-18T05:00:45.995Z,11.20
2022-12-18T05:03:14.122Z,9.98
2022-12-18T05:05:43.793Z,9.63
2022-12-18T05:08:11.512Z,9.63
2022-12-18T05:10:39.377Z,9.70
2022-12-18T05:13:07.416Z,11.55
2022-12-18T05:15:36.153Z,9.75
2022-12-18T05:18:05.138Z,9.20
2022-12-18T05:20:33.792Z,10.35
2022-12-18T05:23:03.106Z,10.40
2022-12-18T05:25:31.214Z,9.00
2022-12-18T05:27:59.410Z,8.60
2022-12-18T05:30:28.530Z,8.43
2022-12-18T05:32:56.615Z,10.75
2022-12-18T05:35:24.756Z,10.03
2022-12-18T05:37:54.579Z,8.35
2022-12-18T05:40:24.495Z,8.93
2022-12-18T05:42:52.496Z,7.88
2022-12-18T05:48:15.465Z,8.53
2022-12-18T05:50:45.449Z,8.50
2022-12-18T05:53:14.805Z,9.35
2022-12-18T05:55:45.557Z,9.38
2022-12-18T05:58:15.297Z,11.30
2022-12-18T06:00:45.797Z,7.50
2022-12-18T06:03:14.984Z,7.07
2022-12-18T06:05:44.633Z,7.78
2022-12-18T06:08:13.210Z,7.80
2022-12-18T06:10:42.171Z,7.60
2022-12-18T06:13:11.500Z,8.10
2022-12-18T06:15:40.081Z,7.45
2022-12-18T06:18:07.983Z,8.40
2022-12-18T06:20:37.571Z,9.45
2022-12-18T06:23:05.521Z,8.15
2022-12-18T06:25:33.945Z,8.70
2022-12-18T06:28:01.893Z,8.32
2022-12-18T06:30:31.374Z,8.73
2022-12-18T06:32:59.250Z,15.50
2022-12-18T06:35:27.114Z,10.10
2022-12-18T06:37:55.235Z,9.17
2022-12-18T06:40:22.918Z,9.18
2022-12-18T06:42:51.414Z,7.15
2022-12-18T06:45:19.508Z,10.50
2022-12-18T06:47:49.074Z,7.78
2022-12-18T06:50:17.535Z,8.30
2022-12-18T06:52:45.457Z,7.43
2022-12-18T06:55:14.025Z,8.40
2022-12-18T06:57:42.558Z,8.60
2022-12-18T07:00:11.344Z,9.25
2022-12-18T07:02:40.210Z,7.67
2022-12-18T07:05:11.062Z,9.27
2022-12-18T07:07:39.313Z,9.85
2022-12-18T07:10:09.149Z,11.55
2022-12-18T07:12:37.146Z,8.63
2022-12-18T07:15:06.182Z,11.17
2022-12-18T07:17:34.214Z,9.85
2022-12-18T07:20:02.668Z,9.57
2022-12-18T07:22:32.132Z,10.40
2022-12-18T07:25:00.033Z,11.57
2022-12-18T07:27:28.254Z,9.83
2022-12-18T07:29:56.592Z,11.57
2022-12-18T07:32:24.571Z,12.10
2022-12-18T07:34:52.628Z,9.70
2022-12-18T07:37:20.225Z,10.88
2022-12-18T07:39:49.785Z,9.37
2022-12-18T07:42:33.219Z,9.15
2022-12-18T07:45:01.458Z,8.13
2022-12-18T07:47:29.886Z,7.97
2022-12-18T07:49:59.113Z,9.23
2022-12-18T07:52:27.790Z,9.53
2022-12-18T07:54:57.549Z,11.40
2022-12-18T07:57:49.439Z,8.80
2022-12-18T08:00:14.479Z,7.63
2022-12-18T08:02:42.485Z,8.25
2022-12-18T08:05:12.263Z,8.43
2022-12-18T08:07:40.150Z,8.82
2022-12-18T08:10:11.093Z,9.50
2022-12-18T08:12:39.021Z,7.65
2022-12-18T08:15:07.913Z,7.57
2022-12-18T08:17:36.005Z,7.50
2022-12-18T08:20:04.420Z,8.65
2022-12-18T08:22:36.052Z,7.40
2022-12-18T08:25:04.233Z,7.78
2022-12-18T08:27:34.952Z,9.88
2022-12-18T08:30:03.878Z,8.97
2022-12-18T08:32:33.903Z,12.75
2022-12-18T08:35:02.020Z,7.80
2022-12-18T08:37:30.088Z,10.38
2022-12-18T08:39:58.468Z,8.45
2022-12-18T08:42:49.033Z,7.60
2022-12-18T08:45:19.395Z,8.02
2022-12-18T08:47:50.783Z,7.13
2022-12-18T08:50:21.260Z,8.05
2022-12-18T08:52:49.115Z,7.68
2022-12-18T08:55:21.000Z,7.87
2022-12-18T08:57:52.803Z,9.93
2022-12-18T09:00:25.228Z,8.48
2022-12-18T09:02:55.401Z,7.65
2022-12-18T09:05:23.355Z,8.80
2022-12-18T09:07:51.718Z,9.50
2022-12-18T09:10:20.976Z,8.63
2022-12-18T09:12:50.219Z,10.13
2022-12-18T09:15:24.217Z,7.95
2022-12-18T09:17:56.196Z,7.97
2022-12-18T09:20:28.856Z,7.50
2022-12-18T09:22:56.921Z,8.35
2022-12-18T09:25:28.965Z,10.13
2022-12-18T09:28:03.484Z,8.13
2022-12-18T09:30:36.325Z,14.85
2022-12-18T09:33:18.020Z,8.23
2022-12-18T09:35:48.223Z,6.75
2022-12-18T09:38:20.940Z,11.68
2022-12-18T09:40:54.792Z,9.82
2022-12-18T09:43:30.630Z,7.70
2022-12-18T09:46:08.194Z,8.07
2022-12-18T09:48:43.240Z,11.90
2022-12-18T09:51:21.125Z,8.50
2022-12-18T09:53:59.885Z,7.82
2022-12-18T09:56:34.965Z,9.25
2022-12-18T09:59:05.709Z,6.67
2022-12-18T10:01:43.384Z,6.80
2022-12-18T10:04:21.520Z,6.65
2022-12-18T10:07:09.407Z,5.95
2022-12-18T10:09:53.746Z,5.97
2022-12-18T10:12:31.444Z,6.40
2022-12-18T10:15:04.490Z,7.00
2022-12-18T10:17:41.692Z,6.68
2022-12-18T10:20:18.211Z,6.60
2022-12-18T10:22:56.178Z,7.07
2022-12-18T10:25:32.910Z,8.10
2022-12-18T10:28:09.759Z,9.73
2022-12-18T10:30:38.215Z,7.22
2022-12-18T10:33:06.116Z,6.20
2022-12-18T10:35:36.675Z,5.68
2022-12-18T10:38:12.131Z,7.10
2022-12-18T10:40:54.853Z,8.35
2022-12-18T10:43:26.815Z,7.78
2022-12-18T10:46:17.486Z,7.10
2022-12-18T10:49:03.882Z,8.02
2022-12-18T10:51:39.667Z,7.30
2022-12-18T10:54:17.213Z,7.05
2022-12-18T10:56:48.187Z,7.45
2022-12-18T10:59:25.556Z,6.63
2022-12-18T11:01:56.273Z,6.90
2022-12-18T11:04:27.864Z,6.43
2022-12-18T11:07:00.393Z,8.05
2022-12-18T11:09:30.190Z,8.45
2022-12-18T11:12:00.228Z,7.63
2022-12-18T11:14:30.365Z,9.25
2022-12-18T11:20:41.992Z,8.75
2022-12-18T11:23:15.555Z,7.70
2022-12-18T11:25:54.503Z,8.18
2022-12-18T11:28:39.590Z,8.48
2022-12-18T11:31:23.400Z,8.10
2022-12-18T11:34:27.627Z,7.85
2022-12-18T11:36:49.676Z,8.02
2022-12-18T11:39:23.129Z,8.93
2022-12-18T11:42:12.791Z,9.82
2022-12-18T11:44:49.974Z,8.97
2022-12-18T11:47:27.707Z,9.80
2022-12-18T11:49:58.099Z,9.60
2022-12-18T11:52:28.867Z,8.75
2022-12-18T11:55:04.024Z,10.63
2022-12-18T11:57:41.244Z,10.27
2022-12-18T12:00:17.834Z,14.68
2022-12-18T12:03:04.868Z,10.45
2022-12-18T12:05:43.037Z,11.05
2022-12-18T12:08:20.784Z,8.57
2022-12-18T12:10:58.465Z,8.93
2022-12-18T12:13:42.498Z,7.80
2022-12-18T12:16:18.685Z,7.55
2022-12-18T12:19:00.898Z,8.27
2022-12-18T12:21:35.092Z,7.63
2022-12-18T12:24:10.782Z,9.13
2022-12-18T12:26:51.089Z,8.10
2022-12-18T12:29:33.413Z,8.48
2022-12-18T12:32:11.023Z,8.82
2022-12-18T12:34:53.660Z,8.77
2022-12-18T12:37:35.674Z,9.00
2022-12-18T12:40:26.904Z,8.23
2022-12-18T12:43:19.096Z,8.55
2022-12-18T12:45:49.550Z,9.20
2022-12-18T12:48:23.072Z,7.88
2022-12-18T12:50:52.498Z,10.27
2022-12-18T12:53:29.295Z,8.50
2022-12-18T12:55:58.447Z,8.88
2022-12-18T12:58:38.206Z,8.88
2022-12-18T13:01:18.496Z,9.05
2022-12-18T13:04:19.124Z,10.00
2022-12-18T13:07:09.536Z,10.88
2022-12-18T13:10:32.851Z,9.50
2022-12-18T13:13:08.935Z,9.20
2022-12-18T13:15:44.338Z,10.70
2022-12-18T13:18:20.118Z,8.80
2022-12-18T13:21:13.258Z,10.43
2022-12-18T13:23:42.292Z,13.68
2022-12-18T13:26:34.944Z,15.23
2022-12-18T13:29:10.061Z,11.00
2022-12-18T13:32:03.189Z,9.60
2022-12-18T13:34:33.495Z,8.52
2022-12-18T13:37:41.550Z,9.50
2022-12-18T13:40:59.639Z,9.43
2022-12-18T13:43:39.380Z,9.00
2022-12-18T13:46:26.495Z,9.00
2022-12-18T13:49:05.425Z,9.07
2022-12-18T13:51:36.018Z,9.05
2022-12-18T13:54:16.580Z,8.32
2022-12-18T13:56:49.833Z,8.23
2022-12-18T13:59:24.788Z,8.90
2022-12-18T14:02:09.311Z,8.48
2022-12-18T14:04:44.950Z,7.78
2022-12-18T14:07:21.300Z,16.25
2022-12-18T14:09:55.605Z,9.90
2022-12-18T14:12:49.807Z,10.07
2022-12-18T14:15:26.708Z,8.85
2022-12-18T14:17:56.924Z,10.07
2022-12-18T14:20:29.070Z,10.30
2022-12-18T14:22:58.963Z,9.73
2022-12-18T14:25:31.691Z,9.60
2022-12-18T14:28:10.135Z,16.63
2022-12-18T14:30:44.900Z,11.93
2022-12-18T14:33:15.514Z,14.15
2022-12-18T14:35:45.472Z,12.75
2022-12-18T14:38:22.938Z,13.00
2022-12-18T14:40:54.604Z,16.70
2022-12-18T14:43:22.642Z,19.80
2022-12-18T14:45:52.638Z,17.17
2022-12-18T14:48:23.098Z,11.68
2022-12-18T14:50:59.690Z,18.93
2022-12-18T14:53:42.200Z,15.80
2022-12-18T14:56:19.840Z,9.98
2022-12-18T14:58:52.979Z,13.60
2022-12-18T15:01:28.471Z,11.40
2022-12-18T15:03:57.810Z,9.40
2022-12-18T15:06:32.956Z,11.77
2022-12-18T15:09:03.181Z,11.48
2022-12-18T15:11:45.994Z,12.85
2022-12-18T15:14:33.182Z,16.55
2022-12-18T15:17:04.976Z,8.57
2022-12-18T15:19:39.661Z,10.38
2022-12-18T15:22:21.195Z,13.02
2022-12-18T15:24:51.053Z,10.85
2022-12-18T15:27:31.965Z,8.80
2022-12-18T15:30:22.288Z,12.77
2022-12-18T15:32:52.490Z,8.55
2022-12-18T15:35:23.385Z,9.50
2022-12-18T15:37:52.481Z,9.93
2022-12-18T15:40:22.219Z,11.27
2022-12-18T15:43:11.047Z,9.07
2022-12-18T15:45:39.124Z,10.45
2022-12-18T15:48:24.830Z,10.40
2022-12-18T15:50:54.560Z,10.95
2022-12-18T15:53:22.585Z,8.50
2022-12-18T15:56:07.705Z,7.43
2022-12-18T15:58:36.453Z,7.38
2022-12-18T16:01:04.873Z,8.23
2022-12-18T16:03:34.556Z,8.32
2022-12-18T16:06:07.338Z,7.65
2022-12-18T16:08:35.128Z,6.20
2022-12-18T16:11:04.101Z,8.23
2022-12-18T16:13:32.227Z,6.97
2022-12-18T16:16:00.739Z,7.25
2022-12-18T16:18:28.639Z,7.10
2022-12-18T16:21:08.717Z,7.47
2022-12-18T16:23:36.443Z,7.18
2022-12-18T16:26:05.683Z,6.90
2022-12-18T16:28:33.642Z,6.63
2022-12-18T16:31:01.636Z,6.32
2022-12-18T16:33:29.317Z,6.60
2022-12-18T16:35:59.055Z,7.30
2022-12-18T16:38:26.791Z,6.38
2022-12-18T16:41:12.290Z,6.63
2022-12-18T16:43:40.468Z,5.85
2022-12-18T16:46:08.397Z,5.83
2022-12-18T16:48:36.339Z,6.47
2022-12-18T16:51:06.759Z,7.35
2022-12-18T16:53:35.482Z,6.45
2022-12-18T16:56:05.344Z,6.65
2022-12-18T16:58:34.526Z,6.10
2022-12-18T17:01:03.077Z,8.35
2022-12-18T17:03:31.156Z,7.07
2022-12-18T17:06:05.299Z,6.18
2022-12-18T17:08:33.813Z,6.25
2022-12-18T17:11:05.742Z,6.23
2022-12-18T17:13:34.014Z,7.15
2022-12-18T17:16:04.927Z,11.07
2022-12-18T17:18:32.755Z,9.73
2022-12-18T17:21:01.894Z,9.93
2022-12-18T17:23:31.656Z,10.33
2022-12-18T17:26:00.417Z,10.13
2022-12-18T17:28:28.742Z,9.02
2022-12-18T17:30:57.705Z,8.55
2022-12-18T17:33:25.827Z,8.20
2022-12-18T17:35:53.905Z,7.50
2022-12-18T17:38:21.968Z,7.85
2022-12-18T17:40:51.072Z,8.23
2022-12-18T17:43:18.925Z,6.88
2022-12-18T17:45:46.638Z,7.28
2022-12-18T17:48:14.480Z,6.70
2022-12-18T17:50:42.860Z,8.93
2022-12-18T17:53:10.728Z,6.97
2022-12-18T17:55:39.122Z,6.72
2022-12-18T17:58:08.363Z,7.57
2022-12-18T18:00:36.105Z,6.87
2022-12-18T18:03:07.095Z,8.07
2022-12-18T18:05:35.229Z,6.97
2022-12-18T18:08:02.866Z,6.93
2022-12-18T18:10:33.487Z,6.90
2022-12-18T18:13:33.497Z,7.87
2022-12-18T18:16:07.607Z,9.55
2022-12-18T18:18:36.070Z,10.20
2022-12-18T18:21:05.944Z,8.55
2022-12-18T18:23:34.999Z,8.10
2022-12-18T18:26:04.725Z,9.10
2022-12-18T18:28:37.080Z,10.57
2022-12-18T18:31:08.798Z,13.68
2022-12-18T18:33:36.607Z,11.43
2022-12-18T18:36:05.454Z,8.55
2022-12-18T18:38:33.448Z,10.07
2022-12-18T18:41:02.380Z,10.05
2022-12-18T18:43:30.713Z,18.08
2022-12-18T18:45:58.792Z,9.85
2022-12-18T18:48:30.444Z,13.95
2022-12-18T18:51:01.638Z,12.57
2022-12-18T18:53:30.130Z,13.25
2022-12-18T18:56:34.839Z,14.98
2022-12-18T18:58:48.360Z,11.15
2022-12-18T19:01:18.181Z,12.13
2022-12-18T19:03:48.935Z,10.30
2022-12-18T19:06:19.136Z,12.98
2022-12-18T19:08:48.732Z,13.43
2022-12-18T19:11:36.618Z,11.75
2022-12-18T19:14:06.755Z,10.30
2022-12-18T19:16:35.485Z,9.67
2022-12-18T19:19:05.883Z,10.10
2022-12-18T19:21:34.123Z,10.70
2022-12-18T19:24:03.528Z,10.02
2022-12-18T19:26:32.100Z,10.10
2022-12-18T19:29:02.302Z,12.03
2022-12-18T19:31:35.558Z,10.30
2022-12-18T19:34:07.185Z,10.93
2022-12-18T19:36:36.634Z,12.93
2022-12-18T19:39:10.648Z,12.95
2022-12-18T19:41:38.736Z,12.13
2022-12-18T19:44:08.414Z,10.75
2022-12-18T19:46:42.133Z,10.40
2022-12-18T19:49:17.621Z,10.18
2022-12-18T19:51:46.471Z,10.10
2022-12-18T19:54:16.965Z,9.53
2022-12-18T19:56:47.143Z,10.38
2022-12-18T19:59:16.351Z,10.45
2022-12-18T20:01:44.992Z,9.25
2022-12-18T20:04:14.158Z,10.38
2022-12-18T20:06:50.141Z,10.00
2022-12-18T20:09:19.173Z,10.88
2022-12-18T20:11:47.446Z,12.38
2022-12-18T20:14:23.203Z,11.65
2022-12-18T20:16:52.372Z,10.45
2022-12-18T20:19:22.738Z,9.93
2022-12-18T20:21:50.821Z,11.27
2022-12-18T20:24:18.797Z,10.60
2022-12-18T20:26:46.698Z,11.18
2022-12-18T20:29:14.469Z,10.88
2022-12-18T20:31:42.513Z,11.83
2022-12-18T20:34:10.425Z,10.48
2022-12-18T20:36:40.260Z,10.52
2022-12-18T20:39:10.833Z,10.73
2022-12-18T20:41:39.630Z,11.10
2022-12-18T20:44:20.681Z,11.30
2022-12-18T20:46:50.713Z,9.85
2022-12-18T20:49:18.602Z,11.05
2022-12-18T20:51:51.168Z,10.45
2022-12-18T20:54:20.258Z,11.75
2022-12-18T20:56:48.556Z,11.47
2022-12-18T20:59:16.485Z,11.40
2022-12-18T21:01:47.211Z,11.15
2022-12-18T21:04:18.206Z,11.00
2022-12-18T21:06:52.952Z,11.70
2022-12-18T21:09:23.611Z,13.40
2022-12-18T21:12:09.012Z,12.30
2022-12-18T21:14:41.653Z,10.73
2022-12-18T21:17:11.046Z,14.13
2022-12-18T21:19:39.496Z,14.05
2022-12-18T21:22:09.378Z,11.20
2022-12-18T21:24:37.105Z,11.88
2022-12-18T21:27:04.951Z,14.05
2022-12-18T21:29:33.363Z,12.52
2022-12-18T21:32:02.151Z,10.65
2022-12-18T21:34:32.339Z,10.47
2022-12-18T21:37:02.223Z,10.98
2022-12-18T21:39:32.296Z,11.77
2022-12-18T21:42:18.197Z,10.88
2022-12-18T21:44:49.194Z,10.93
2022-12-18T21:47:22.733Z,12.33
2022-12-18T21:49:53.472Z,10.77
2022-12-18T21:52:31.411Z,10.30
2022-12-18T21:55:08.575Z,10.48
2022-12-18T21:57:40.079Z,11.68
2022-12-18T22:00:19.212Z,11.50
2022-12-18T22:03:17.231Z,11.13
2022-12-18T22:05:37.612Z,11.88
2022-12-18T22:08:07.092Z,11.80
2022-12-18T22:10:36.637Z,11.73
2022-12-18T22:13:04.732Z,11.00
2022-12-18T22:15:32.840Z,12.55
2022-12-18T22:18:01.097Z,11.70
2022-12-18T22:20:29.747Z,11.07
2022-12-18T22:22:58.309Z,12.60
2022-12-18T22:25:27.278Z,10.93
2022-12-18T22:28:13.934Z,11.40
2022-12-18T22:30:43.101Z,11.38
2022-12-18T22:33:10.931Z,11.43
2022-12-18T22:35:38.954Z,12.00
2022-12-18T22:38:07.073Z,13.90
2022-12-18T22:40:35.645Z,12.05
2022-12-18T22:43:05.980Z,12.23
2022-12-18T22:45:35.728Z,10.48
2022-12-18T22:48:07.429Z,12.20
2022-12-18T22:50:36.617Z,12.67
2022-12-18T22:53:07.818Z,12.05
2022-12-18T22:55:35.780Z,11.77
2022-12-18T22:58:05.015Z,12.88
2022-12-18T23:00:33.121Z,12.18
2022-12-18T23:03:01.448Z,12.03
2022-12-18T23:05:31.079Z,12.95
2022-12-18T23:07:59.913Z,13.50
2022-12-18T23:10:29.450Z,11.52
2022-12-18T23:12:57.469Z,12.60
2022-12-18T23:15:28.294Z,13.37
2022-12-18T23:17:57.989Z,13.93
2022-12-18T23:20:26.017Z,12.65
2022-12-18T23:22:54.096Z,13.32
2022-12-18T23:25:22.147Z,13.48
2022-12-18T23:27:50.223Z,13.13
2022-12-18T23:30:18.893Z,12.55
2022-12-18T23:32:48.329Z,12.90
2022-12-18T23:35:16.477Z,11.93
2022-12-18T23:38:00.809Z,12.43
2022-12-18T23:40:30.436Z,12.17
2022-12-18T23:42:59.491Z,11.32
2022-12-18T23:45:27.360Z,11.65
2022-12-18T23:47:56.682Z,12.65
2022-12-18T23:50:29.714Z,11.85
2022-12-18T23:53:03.304Z,13.07
2022-12-18T23:55:39.409Z,12.93
2022-12-18T23:58:07.925Z,11.35
